Terminal Aerodrome Forecast
Issued by NWS

Home | Current Version | Previous Version | Text Only | Print | Product List | Glossary On
Versions: 1 2 3 4 5 6 7 8 9 10 11 12 13 14 15 16 17 18 19 20 21 22 23 24 25 26 27 28 29 30 31 32
024
FTUS41 KOKX 281531 AAB
TAFSWF
TAF AMD
KSWF 281531Z 2816/2918 08004KT 1 1/2SM -RA BR OVC005
     FM281900 07002KT 2SM -RA BR OVC007
     FM290200 02003KT 4SM -DZ BR OVC015
     FM290500 36005KT 6SM BR OVC020
     FM290900 35007KT P6SM SCT030
     FM291500 33014KT P6SM FEW030
      AMD NOT SKED=

USA.gov is the U.S. government's official web portal to all federal, state and local government web resources and services.